sensor_id;sensor_type;location;lat;lon;timestamp;temperature;humidity
53268;DHT22;39156;51.176;6.738;2023-04-25T00:02:01;6.60;71.00
53268;DHT22;39156;51.176;6.738;2023-04-25T00:04:27;6.60;71.10
53268;DHT22;39156;51.176;6.738;2023-04-25T00:06:55;6.70;71.10
53268;DHT22;39156;51.176;6.738;2023-04-25T00:09:21;6.70;71.10
53268;DHT22;39156;51.176;6.738;2023-04-25T00:11:48;6.70;71.10
53268;DHT22;39156;51.176;6.738;2023-04-25T00:14:14;6.70;71.30
53268;DHT22;39156;51.176;6.738;2023-04-25T00:16:39;6.60;71.40
53268;DHT22;39156;51.176;6.738;2023-04-25T00:19:06;6.60;71.40
53268;DHT22;39156;51.176;6.738;2023-04-25T00:21:32;6.70;71.60
53268;DHT22;39156;51.176;6.738;2023-04-25T00:23:59;6.70;71.70
53268;DHT22;39156;51.176;6.738;2023-04-25T00:26:25;6.80;71.70
53268;DHT22;39156;51.176;6.738;2023-04-25T00:28:51;6.80;71.70
53268;DHT22;39156;51.176;6.738;2023-04-25T00:31:16;6.80;71.70
53268;DHT22;39156;51.176;6.738;2023-04-25T00:33:42;6.80;71.80
53268;DHT22;39156;51.176;6.738;2023-04-25T00:36:08;6.80;71.70
53268;DHT22;39156;51.176;6.738;2023-04-25T00:38:34;6.90;71.70
53268;DHT22;39156;51.176;6.738;2023-04-25T00:41:00;6.90;71.60
53268;DHT22;39156;51.176;6.738;2023-04-25T00:43:26;7.00;71.70
53268;DHT22;39156;51.176;6.738;2023-04-25T00:45:52;6.90;71.60
53268;DHT22;39156;51.176;6.738;2023-04-25T00:48:20;7.00;71.50
53268;DHT22;39156;51.176;6.738;2023-04-25T00:50:54;7.00;71.40
53268;DHT22;39156;51.176;6.738;2023-04-25T00:53:22;7.00;71.60
53268;DHT22;39156;51.176;6.738;2023-04-25T00:55:50;7.00;71.60
53268;DHT22;39156;51.176;6.738;2023-04-25T00:58:17;7.00;71.70
53268;DHT22;39156;51.176;6.738;2023-04-25T01:00:44;7.00;71.70
53268;DHT22;39156;51.176;6.738;2023-04-25T01:03:11;7.10;71.80
53268;DHT22;39156;51.176;6.738;2023-04-25T01:05:37;7.10;71.70
53268;DHT22;39156;51.176;6.738;2023-04-25T01:08:02;7.10;71.70
53268;DHT22;39156;51.176;6.738;2023-04-25T01:10:28;7.10;71.70
53268;DHT22;39156;51.176;6.738;2023-04-25T01:12:54;7.20;71.80
53268;DHT22;39156;51.176;6.738;2023-04-25T01:15:20;7.10;71.80
53268;DHT22;39156;51.176;6.738;2023-04-25T01:17:46;7.20;71.80
53268;DHT22;39156;51.176;6.738;2023-04-25T01:20:12;7.10;71.70
53268;DHT22;39156;51.176;6.738;2023-04-25T01:22:39;7.30;71.80
53268;DHT22;39156;51.176;6.738;2023-04-25T01:25:05;7.20;71.80
53268;DHT22;39156;51.176;6.738;2023-04-25T01:27:32;7.20;71.80
53268;DHT22;39156;51.176;6.738;2023-04-25T01:29:58;7.10;71.60
53268;DHT22;39156;51.176;6.738;2023-04-25T01:32:25;7.30;71.80
53268;DHT22;39156;51.176;6.738;2023-04-25T01:34:52;7.10;71.70
53268;DHT22;39156;51.176;6.738;2023-04-25T01:37:18;7.20;71.80
53268;DHT22;39156;51.176;6.738;2023-04-25T01:39:44;7.20;71.90
53268;DHT22;39156;51.176;6.738;2023-04-25T01:42:10;7.30;71.80
53268;DHT22;39156;51.176;6.738;2023-04-25T01:44:35;7.10;71.70
53268;DHT22;39156;51.176;6.738;2023-04-25T01:47:01;7.20;71.80
53268;DHT22;39156;51.176;6.738;2023-04-25T01:49:27;7.10;71.80
53268;DHT22;39156;51.176;6.738;2023-04-25T01:51:53;7.20;71.90
53268;DHT22;39156;51.176;6.738;2023-04-25T01:54:19;7.00;71.80
53268;DHT22;39156;51.176;6.738;2023-04-25T01:56:50;7.10;71.90
53268;DHT22;39156;51.176;6.738;2023-04-25T01:59:16;6.90;71.90
53268;DHT22;39156;51.176;6.738;2023-04-25T02:01:43;7.00;72.00
53268;DHT22;39156;51.176;6.738;2023-04-25T02:04:09;7.00;72.20
53268;DHT22;39156;51.176;6.738;2023-04-25T02:06:34;6.90;71.90
53268;DHT22;39156;51.176;6.738;2023-04-25T02:09:00;6.90;72.20
53268;DHT22;39156;51.176;6.738;2023-04-25T02:11:26;6.90;72.40
53268;DHT22;39156;51.176;6.738;2023-04-25T02:13:51;6.80;72.40
53268;DHT22;39156;51.176;6.738;2023-04-25T02:16:17;6.80;72.50
53268;DHT22;39156;51.176;6.738;2023-04-25T02:18:44;6.80;72.70
53268;DHT22;39156;51.176;6.738;2023-04-25T02:21:10;6.80;72.60
53268;DHT22;39156;51.176;6.738;2023-04-25T02:23:36;6.90;72.80
53268;DHT22;39156;51.176;6.738;2023-04-25T02:26:02;6.80;72.80
53268;DHT22;39156;51.176;6.738;2023-04-25T02:28:28;6.90;72.70
53268;DHT22;39156;51.176;6.738;2023-04-25T02:30:54;6.90;72.60
53268;DHT22;39156;51.176;6.738;2023-04-25T02:33:19;6.90;72.60
53268;DHT22;39156;51.176;6.738;2023-04-25T02:35:46;6.90;72.60
53268;DHT22;39156;51.176;6.738;2023-04-25T02:38:12;6.90;72.50
53268;DHT22;39156;51.176;6.738;2023-04-25T02:40:38;7.00;72.50
53268;DHT22;39156;51.176;6.738;2023-04-25T02:43:03;7.00;73.10
53268;DHT22;39156;51.176;6.738;2023-04-25T02:45:29;6.90;72.30
53268;DHT22;39156;51.176;6.738;2023-04-25T02:47:55;7.00;72.30
53268;DHT22;39156;51.176;6.738;2023-04-25T02:50:20;7.10;72.40
53268;DHT22;39156;51.176;6.738;2023-04-25T02:52:46;6.90;72.30
53268;DHT22;39156;51.176;6.738;2023-04-25T02:55:13;6.90;72.30
53268;DHT22;39156;51.176;6.738;2023-04-25T02:57:39;6.90;72.40
53268;DHT22;39156;51.176;6.738;2023-04-25T03:00:05;7.00;72.50
53268;DHT22;39156;51.176;6.738;2023-04-25T03:02:32;7.00;72.50
53268;DHT22;39156;51.176;6.738;2023-04-25T03:04:57;7.00;72.60
53268;DHT22;39156;51.176;6.738;2023-04-25T03:07:23;6.90;72.30
53268;DHT22;39156;51.176;6.738;2023-04-25T03:09:49;6.90;72.40
53268;DHT22;39156;51.176;6.738;2023-04-25T03:12:15;7.00;72.50
53268;DHT22;39156;51.176;6.738;2023-04-25T03:14:41;7.00;72.60
53268;DHT22;39156;51.176;6.738;2023-04-25T03:17:06;7.00;72.70
53268;DHT22;39156;51.176;6.738;2023-04-25T03:19:32;7.00;72.70
53268;DHT22;39156;51.176;6.738;2023-04-25T03:21:58;7.00;72.80
53268;DHT22;39156;51.176;6.738;2023-04-25T03:24:23;7.00;72.90
53268;DHT22;39156;51.176;6.738;2023-04-25T03:26:49;7.00;73.00
53268;DHT22;39156;51.176;6.738;2023-04-25T03:29:15;7.00;72.80
53268;DHT22;39156;51.176;6.738;2023-04-25T03:31:40;7.00;72.90
53268;DHT22;39156;51.176;6.738;2023-04-25T03:34:06;6.90;73.00
53268;DHT22;39156;51.176;6.738;2023-04-25T03:36:32;7.00;73.10
53268;DHT22;39156;51.176;6.738;2023-04-25T03:38:57;7.00;73.20
53268;DHT22;39156;51.176;6.738;2023-04-25T03:41:23;7.00;73.10
53268;DHT22;39156;51.176;6.738;2023-04-25T03:43:49;7.10;73.20
53268;DHT22;39156;51.176;6.738;2023-04-25T03:46:15;7.00;73.30
53268;DHT22;39156;51.176;6.738;2023-04-25T03:48:40;7.00;73.40
53268;DHT22;39156;51.176;6.738;2023-04-25T03:51:06;7.00;73.30
53268;DHT22;39156;51.176;6.738;2023-04-25T03:53:32;7.00;73.30
53268;DHT22;39156;51.176;6.738;2023-04-25T03:55:57;7.00;73.30
53268;DHT22;39156;51.176;6.738;2023-04-25T03:58:23;7.00;73.50
53268;DHT22;39156;51.176;6.738;2023-04-25T04:00:49;6.90;73.50
53268;DHT22;39156;51.176;6.738;2023-04-25T04:03:15;6.90;73.60
53268;DHT22;39156;51.176;6.738;2023-04-25T04:05:41;6.80;73.60
53268;DHT22;39156;51.176;6.738;2023-04-25T04:08:06;6.90;73.60
53268;DHT22;39156;51.176;6.738;2023-04-25T04:10:32;6.90;73.60
53268;DHT22;39156;51.176;6.738;2023-04-25T04:12:58;6.80;73.50
53268;DHT22;39156;51.176;6.738;2023-04-25T04:15:24;6.80;73.50
53268;DHT22;39156;51.176;6.738;2023-04-25T04:17:49;6.70;73.60
53268;DHT22;39156;51.176;6.738;2023-04-25T04:20:15;6.70;73.80
53268;DHT22;39156;51.176;6.738;2023-04-25T04:22:41;6.70;73.90
53268;DHT22;39156;51.176;6.738;2023-04-25T04:25:07;6.50;73.90
53268;DHT22;39156;51.176;6.738;2023-04-25T04:27:33;6.60;74.10
53268;DHT22;39156;51.176;6.738;2023-04-25T04:29:59;6.60;74.00
53268;DHT22;39156;51.176;6.738;2023-04-25T04:32:25;6.50;74.00
53268;DHT22;39156;51.176;6.738;2023-04-25T04:34:53;6.50;74.20
53268;DHT22;39156;51.176;6.738;2023-04-25T04:37:20;6.40;74.20
53268;DHT22;39156;51.176;6.738;2023-04-25T04:39:46;6.40;74.40
53268;DHT22;39156;51.176;6.738;2023-04-25T04:42:11;6.50;74.60
53268;DHT22;39156;51.176;6.738;2023-04-25T04:44:37;6.50;74.70
53268;DHT22;39156;51.176;6.738;2023-04-25T04:47:04;6.40;74.70
53268;DHT22;39156;51.176;6.738;2023-04-25T04:49:32;6.30;74.60
53268;DHT22;39156;51.176;6.738;2023-04-25T04:51:57;6.30;74.80
53268;DHT22;39156;51.176;6.738;2023-04-25T04:54:25;6.40;74.90
53268;DHT22;39156;51.176;6.738;2023-04-25T04:56:50;6.40;75.30
53268;DHT22;39156;51.176;6.738;2023-04-25T04:59:17;6.50;74.80
53268;DHT22;39156;51.176;6.738;2023-04-25T05:01:43;6.50;74.70
53268;DHT22;39156;51.176;6.738;2023-04-25T05:04:08;6.50;74.60
53268;DHT22;39156;51.176;6.738;2023-04-25T05:06:34;6.50;74.40
53268;DHT22;39156;51.176;6.738;2023-04-25T05:09:00;6.60;74.70
53268;DHT22;39156;51.176;6.738;2023-04-25T05:11:25;6.60;74.70
53268;DHT22;39156;51.176;6.738;2023-04-25T05:13:52;6.70;74.70
53268;DHT22;39156;51.176;6.738;2023-04-25T05:16:18;6.80;74.80
53268;DHT22;39156;51.176;6.738;2023-04-25T05:18:45;6.90;75.20
53268;DHT22;39156;51.176;6.738;2023-04-25T05:21:11;7.20;75.30
53268;DHT22;39156;51.176;6.738;2023-04-25T05:23:36;7.40;74.80
53268;DHT22;39156;51.176;6.738;2023-04-25T05:26:02;7.60;74.40
53268;DHT22;39156;51.176;6.738;2023-04-25T05:28:28;7.90;73.60
53268;DHT22;39156;51.176;6.738;2023-04-25T05:30:54;8.00;73.30
53268;DHT22;39156;51.176;6.738;2023-04-25T05:33:20;8.10;72.00
53268;DHT22;39156;51.176;6.738;2023-04-25T05:35:46;8.10;71.60
53268;DHT22;39156;51.176;6.738;2023-04-25T05:38:12;8.20;71.20
53268;DHT22;39156;51.176;6.738;2023-04-25T05:40:38;8.10;70.90
53268;DHT22;39156;51.176;6.738;2023-04-25T05:43:03;8.20;70.80
53268;DHT22;39156;51.176;6.738;2023-04-25T05:45:29;8.20;70.60
53268;DHT22;39156;51.176;6.738;2023-04-25T05:47:57;8.20;70.60
53268;DHT22;39156;51.176;6.738;2023-04-25T05:50:23;8.20;70.60
53268;DHT22;39156;51.176;6.738;2023-04-25T05:52:50;8.20;70.70
53268;DHT22;39156;51.176;6.738;2023-04-25T05:55:16;8.20;70.50
53268;DHT22;39156;51.176;6.738;2023-04-25T05:57:41;8.30;70.70
53268;DHT22;39156;51.176;6.738;2023-04-25T06:00:13;8.30;70.30
53268;DHT22;39156;51.176;6.738;2023-04-25T06:02:41;8.30;69.90
53268;DHT22;39156;51.176;6.738;2023-04-25T06:05:08;8.30;69.40
53268;DHT22;39156;51.176;6.738;2023-04-25T06:07:34;8.30;69.30
53268;DHT22;39156;51.176;6.738;2023-04-25T06:10:00;8.30;69.50
53268;DHT22;39156;51.176;6.738;2023-04-25T06:12:26;8.30;69.60
53268;DHT22;39156;51.176;6.738;2023-04-25T06:14:51;8.30;69.70
53268;DHT22;39156;51.176;6.738;2023-04-25T06:17:17;8.40;70.00
53268;DHT22;39156;51.176;6.738;2023-04-25T06:19:43;8.40;69.50
53268;DHT22;39156;51.176;6.738;2023-04-25T06:22:09;8.50;69.70
53268;DHT22;39156;51.176;6.738;2023-04-25T06:24:35;8.60;69.70
53268;DHT22;39156;51.176;6.738;2023-04-25T06:27:01;8.70;69.80
53268;DHT22;39156;51.176;6.738;2023-04-25T06:29:27;8.90;69.70
53268;DHT22;39156;51.176;6.738;2023-04-25T06:31:52;9.00;69.40
53268;DHT22;39156;51.176;6.738;2023-04-25T06:34:18;9.10;68.90
53268;DHT22;39156;51.176;6.738;2023-04-25T06:36:44;9.30;68.70
53268;DHT22;39156;51.176;6.738;2023-04-25T06:39:10;9.40;68.70
53268;DHT22;39156;51.176;6.738;2023-04-25T06:41:36;9.60;68.50
53268;DHT22;39156;51.176;6.738;2023-04-25T06:44:02;9.80;67.80
53268;DHT22;39156;51.176;6.738;2023-04-25T06:46:27;10.00;66.90
53268;DHT22;39156;51.176;6.738;2023-04-25T06:48:53;10.00;66.00
53268;DHT22;39156;51.176;6.738;2023-04-25T06:51:19;10.00;65.80
53268;DHT22;39156;51.176;6.738;2023-04-25T06:53:44;10.10;65.80
53268;DHT22;39156;51.176;6.738;2023-04-25T06:56:10;10.10;65.40
53268;DHT22;39156;51.176;6.738;2023-04-25T06:58:36;10.20;65.50
53268;DHT22;39156;51.176;6.738;2023-04-25T07:01:01;10.20;66.10
53268;DHT22;39156;51.176;6.738;2023-04-25T07:03:27;10.30;65.30
53268;DHT22;39156;51.176;6.738;2023-04-25T07:05:53;10.30;64.90
53268;DHT22;39156;51.176;6.738;2023-04-25T07:08:19;10.40;64.70
53268;DHT22;39156;51.176;6.738;2023-04-25T07:10:45;10.40;64.30
53268;DHT22;39156;51.176;6.738;2023-04-25T07:13:11;10.60;64.10
53268;DHT22;39156;51.176;6.738;2023-04-25T07:15:37;10.70;65.20
53268;DHT22;39156;51.176;6.738;2023-04-25T07:18:03;11.10;66.70
53268;DHT22;39156;51.176;6.738;2023-04-25T07:20:28;11.50;65.80
53268;DHT22;39156;51.176;6.738;2023-04-25T07:22:56;11.80;64.40
53268;DHT22;39156;51.176;6.738;2023-04-25T07:25:22;12.00;62.40
53268;DHT22;39156;51.176;6.738;2023-04-25T07:27:48;12.10;60.80
53268;DHT22;39156;51.176;6.738;2023-04-25T07:30:14;12.20;60.70
53268;DHT22;39156;51.176;6.738;2023-04-25T07:32:40;12.40;61.90
53268;DHT22;39156;51.176;6.738;2023-04-25T07:35:06;12.50;61.10
53268;DHT22;39156;51.176;6.738;2023-04-25T07:37:33;12.70;60.10
53268;DHT22;39156;51.176;6.738;2023-04-25T07:40:05;12.60;59.20
53268;DHT22;39156;51.176;6.738;2023-04-25T07:42:43;12.70;59.40
53268;DHT22;39156;51.176;6.738;2023-04-25T07:45:09;12.90;60.30
53268;DHT22;39156;51.176;6.738;2023-04-25T07:47:35;12.90;59.90
53268;DHT22;39156;51.176;6.738;2023-04-25T07:50:02;13.00;58.50
53268;DHT22;39156;51.176;6.738;2023-04-25T07:52:31;13.00;58.40
53268;DHT22;39156;51.176;6.738;2023-04-25T07:54:57;12.90;57.40
53268;DHT22;39156;51.176;6.738;2023-04-25T07:57:23;12.70;56.60
53268;DHT22;39156;51.176;6.738;2023-04-25T07:59:49;12.50;56.60
53268;DHT22;39156;51.176;6.738;2023-04-25T08:02:15;12.20;56.50
53268;DHT22;39156;51.176;6.738;2023-04-25T08:04:41;12.10;57.10
53268;DHT22;39156;51.176;6.738;2023-04-25T08:07:06;11.90;57.20
53268;DHT22;39156;51.176;6.738;2023-04-25T08:09:32;11.80;57.40
53268;DHT22;39156;51.176;6.738;2023-04-25T08:12:02;11.60;57.40
53268;DHT22;39156;51.176;6.738;2023-04-25T08:14:29;11.40;57.60
53268;DHT22;39156;51.176;6.738;2023-04-25T08:17:01;11.30;57.50
53268;DHT22;39156;51.176;6.738;2023-04-25T08:19:29;11.20;57.60
53268;DHT22;39156;51.176;6.738;2023-04-25T08:21:56;11.10;57.80
53268;DHT22;39156;51.176;6.738;2023-04-25T08:24:22;11.10;58.30
53268;DHT22;39156;51.176;6.738;2023-04-25T08:26:48;11.40;59.90
53268;DHT22;39156;51.176;6.738;2023-04-25T08:29:17;11.80;60.70
53268;DHT22;39156;51.176;6.738;2023-04-25T08:31:42;12.30;60.50
53268;DHT22;39156;51.176;6.738;2023-04-25T08:34:08;12.80;59.70
53268;DHT22;39156;51.176;6.738;2023-04-25T08:36:35;13.20;58.50
53268;DHT22;39156;51.176;6.738;2023-04-25T08:39:00;13.70;57.20
53268;DHT22;39156;51.176;6.738;2023-04-25T08:41:27;14.00;55.00
53268;DHT22;39156;51.176;6.738;2023-04-25T08:43:53;14.20;54.60
53268;DHT22;39156;51.176;6.738;2023-04-25T08:46:23;14.30;53.70
53268;DHT22;39156;51.176;6.738;2023-04-25T08:48:49;14.30;52.60
53268;DHT22;39156;51.176;6.738;2023-04-25T08:51:21;14.20;51.30
53268;DHT22;39156;51.176;6.738;2023-04-25T08:53:51;14.10;50.80
53268;DHT22;39156;51.176;6.738;2023-04-25T08:56:18;14.00;52.10
53268;DHT22;39156;51.176;6.738;2023-04-25T08:58:50;14.00;52.00
53268;DHT22;39156;51.176;6.738;2023-04-25T09:01:16;14.00;52.40
53268;DHT22;39156;51.176;6.738;2023-04-25T09:03:44;14.10;50.90
53268;DHT22;39156;51.176;6.738;2023-04-25T09:06:13;14.20;50.10
53268;DHT22;39156;51.176;6.738;2023-04-25T09:08:40;14.20;49.10
53268;DHT22;39156;51.176;6.738;2023-04-25T09:11:06;14.20;48.50
53268;DHT22;39156;51.176;6.738;2023-04-25T09:13:32;14.00;48.10
53268;DHT22;39156;51.176;6.738;2023-04-25T09:15:58;13.90;48.20
53268;DHT22;39156;51.176;6.738;2023-04-25T09:18:32;13.70;48.30
53268;DHT22;39156;51.176;6.738;2023-04-25T09:21:09;13.40;47.90
53268;DHT22;39156;51.176;6.738;2023-04-25T09:23:45;13.20;48.30
53268;DHT22;39156;51.176;6.738;2023-04-25T09:26:28;12.90;48.50
53268;DHT22;39156;51.176;6.738;2023-04-25T09:29:05;12.60;48.80
53268;DHT22;39156;51.176;6.738;2023-04-25T09:31:34;12.50;49.50
53268;DHT22;39156;51.176;6.738;2023-04-25T09:34:00;12.40;50.60
53268;DHT22;39156;51.176;6.738;2023-04-25T09:36:27;12.50;51.70
53268;DHT22;39156;51.176;6.738;2023-04-25T09:38:54;12.70;51.70
53268;DHT22;39156;51.176;6.738;2023-04-25T09:41:24;12.90;51.80
53268;DHT22;39156;51.176;6.738;2023-04-25T09:43:50;13.30;51.80
53268;DHT22;39156;51.176;6.738;2023-04-25T09:46:16;13.60;52.40
53268;DHT22;39156;51.176;6.738;2023-04-25T09:48:52;14.00;50.20
53268;DHT22;39156;51.176;6.738;2023-04-25T09:51:19;14.10;47.70
53268;DHT22;39156;51.176;6.738;2023-04-25T09:53:46;14.10;48.00
53268;DHT22;39156;51.176;6.738;2023-04-25T09:56:15;14.10;48.30
53268;DHT22;39156;51.176;6.738;2023-04-25T09:58:41;13.90;48.20
53268;DHT22;39156;51.176;6.738;2023-04-25T10:01:09;13.80;47.60
53268;DHT22;39156;51.176;6.738;2023-04-25T10:03:38;13.60;47.60
53268;DHT22;39156;51.176;6.738;2023-04-25T10:06:12;13.50;46.30
53268;DHT22;39156;51.176;6.738;2023-04-25T10:08:40;13.30;46.20
53268;DHT22;39156;51.176;6.738;2023-04-25T10:11:08;13.10;47.40
53268;DHT22;39156;51.176;6.738;2023-04-25T10:13:35;13.10;47.60
53268;DHT22;39156;51.176;6.738;2023-04-25T10:16:03;13.00;47.60
53268;DHT22;39156;51.176;6.738;2023-04-25T10:18:30;12.90;48.30
53268;DHT22;39156;51.176;6.738;2023-04-25T10:20:57;13.00;48.60
53268;DHT22;39156;51.176;6.738;2023-04-25T10:23:24;13.00;50.70
53268;DHT22;39156;51.176;6.738;2023-04-25T10:25:51;13.00;47.80
53268;DHT22;39156;51.176;6.738;2023-04-25T10:28:18;12.90;47.60
53268;DHT22;39156;51.176;6.738;2023-04-25T10:33:38;12.70;48.10
53268;DHT22;39156;51.176;6.738;2023-04-25T10:36:18;12.60;48.00
53268;DHT22;39156;51.176;6.738;2023-04-25T10:38:47;12.50;48.60
53268;DHT22;39156;51.176;6.738;2023-04-25T10:41:14;12.30;47.20
53268;DHT22;39156;51.176;6.738;2023-04-25T10:43:41;12.30;47.80
53268;DHT22;39156;51.176;6.738;2023-04-25T10:46:25;12.20;48.30
53268;DHT22;39156;51.176;6.738;2023-04-25T10:48:57;12.00;48.40
53268;DHT22;39156;51.176;6.738;2023-04-25T10:51:32;12.10;49.20
53268;DHT22;39156;51.176;6.738;2023-04-25T10:54:00;12.20;49.00
53268;DHT22;39156;51.176;6.738;2023-04-25T10:56:31;12.40;48.30
53268;DHT22;39156;51.176;6.738;2023-04-25T11:01:39;12.60;48.30
53268;DHT22;39156;51.176;6.738;2023-04-25T11:04:06;12.80;48.30
53268;DHT22;39156;51.176;6.738;2023-04-25T11:09:28;13.10;47.20
53268;DHT22;39156;51.176;6.738;2023-04-25T11:11:57;13.20;47.00
53268;DHT22;39156;51.176;6.738;2023-04-25T11:14:24;13.40;45.30
53268;DHT22;39156;51.176;6.738;2023-04-25T11:16:57;13.50;45.30
53268;DHT22;39156;51.176;6.738;2023-04-25T11:19:24;13.60;45.30
53268;DHT22;39156;51.176;6.738;2023-04-25T11:21:54;13.60;44.90
53268;DHT22;39156;51.176;6.738;2023-04-25T11:24:31;13.70;44.70
53268;DHT22;39156;51.176;6.738;2023-04-25T11:27:04;13.70;44.10
53268;DHT22;39156;51.176;6.738;2023-04-25T11:29:33;13.70;44.50
53268;DHT22;39156;51.176;6.738;2023-04-25T11:31:59;13.70;45.40
53268;DHT22;39156;51.176;6.738;2023-04-25T11:34:30;13.70;44.70
53268;DHT22;39156;51.176;6.738;2023-04-25T11:36:56;13.70;44.00
53268;DHT22;39156;51.176;6.738;2023-04-25T11:39:25;13.70;44.70
53268;DHT22;39156;51.176;6.738;2023-04-25T11:41:52;13.60;45.00
53268;DHT22;39156;51.176;6.738;2023-04-25T11:44:19;13.50;44.20
53268;DHT22;39156;51.176;6.738;2023-04-25T11:46:46;13.50;44.00
53268;DHT22;39156;51.176;6.738;2023-04-25T11:49:13;13.50;44.50
53268;DHT22;39156;51.176;6.738;2023-04-25T11:51:44;13.40;44.60
53268;DHT22;39156;51.176;6.738;2023-04-25T11:54:12;13.30;44.90
53268;DHT22;39156;51.176;6.738;2023-04-25T11:56:41;13.20;45.20
53268;DHT22;39156;51.176;6.738;2023-04-25T11:59:07;13.00;45.20
53268;DHT22;39156;51.176;6.738;2023-04-25T12:01:34;13.00;45.30
53268;DHT22;39156;51.176;6.738;2023-04-25T12:04:14;12.90;45.40
53268;DHT22;39156;51.176;6.738;2023-04-25T12:06:42;12.70;46.00
53268;DHT22;39156;51.176;6.738;2023-04-25T12:09:10;12.60;46.00
53268;DHT22;39156;51.176;6.738;2023-04-25T12:11:52;12.50;46.00
53268;DHT22;39156;51.176;6.738;2023-04-25T12:14:32;12.40;45.30
53268;DHT22;39156;51.176;6.738;2023-04-25T12:17:00;12.40;45.30
53268;DHT22;39156;51.176;6.738;2023-04-25T12:19:37;12.30;46.40
53268;DHT22;39156;51.176;6.738;2023-04-25T12:22:22;12.40;47.40
53268;DHT22;39156;51.176;6.738;2023-04-25T12:24:49;12.40;47.40
53268;DHT22;39156;51.176;6.738;2023-04-25T12:27:16;12.60;47.40
53268;DHT22;39156;51.176;6.738;2023-04-25T12:29:54;12.60;47.10
53268;DHT22;39156;51.176;6.738;2023-04-25T12:32:21;12.70;47.20
53268;DHT22;39156;51.176;6.738;2023-04-25T12:34:47;12.70;47.70
53268;DHT22;39156;51.176;6.738;2023-04-25T12:37:13;12.80;48.00
53268;DHT22;39156;51.176;6.738;2023-04-25T12:39:39;12.90;48.10
53268;DHT22;39156;51.176;6.738;2023-04-25T12:42:04;13.00;47.40
53268;DHT22;39156;51.176;6.738;2023-04-25T12:44:33;13.00;47.20
53268;DHT22;39156;51.176;6.738;2023-04-25T12:46:59;13.20;46.60
53268;DHT22;39156;51.176;6.738;2023-04-25T12:49:25;13.30;47.90
53268;DHT22;39156;51.176;6.738;2023-04-25T12:51:51;13.30;48.50
53268;DHT22;39156;51.176;6.738;2023-04-25T12:54:17;13.30;48.90
53268;DHT22;39156;51.176;6.738;2023-04-25T12:56:43;13.30;49.10
53268;DHT22;39156;51.176;6.738;2023-04-25T12:59:08;13.20;49.10
53268;DHT22;39156;51.176;6.738;2023-04-25T13:01:34;13.00;49.30
53268;DHT22;39156;51.176;6.738;2023-04-25T13:04:00;12.80;49.80
53268;DHT22;39156;51.176;6.738;2023-04-25T13:06:26;12.70;50.20
53268;DHT22;39156;51.176;6.738;2023-04-25T13:08:52;12.60;49.70
53268;DHT22;39156;51.176;6.738;2023-04-25T13:11:18;12.50;49.60
53268;DHT22;39156;51.176;6.738;2023-04-25T13:13:44;12.50;49.40
53268;DHT22;39156;51.176;6.738;2023-04-25T13:16:10;12.50;50.00
53268;DHT22;39156;51.176;6.738;2023-04-25T13:18:35;12.50;48.80
53268;DHT22;39156;51.176;6.738;2023-04-25T13:21:01;12.50;48.80
53268;DHT22;39156;51.176;6.738;2023-04-25T13:23:28;12.50;48.50
53268;DHT22;39156;51.176;6.738;2023-04-25T13:25:54;12.50;49.30
53268;DHT22;39156;51.176;6.738;2023-04-25T13:28:20;12.40;47.90
53268;DHT22;39156;51.176;6.738;2023-04-25T13:30:46;12.40;47.90
53268;DHT22;39156;51.176;6.738;2023-04-25T13:33:13;12.30;47.90
53268;DHT22;39156;51.176;6.738;2023-04-25T13:35:40;12.20;47.70
53268;DHT22;39156;51.176;6.738;2023-04-25T13:38:06;12.10;48.00
53268;DHT22;39156;51.176;6.738;2023-04-25T13:40:32;12.10;47.30
53268;DHT22;39156;51.176;6.738;2023-04-25T13:42:58;12.10;46.40
53268;DHT22;39156;51.176;6.738;2023-04-25T13:45:24;12.10;45.30
53268;DHT22;39156;51.176;6.738;2023-04-25T13:47:50;12.10;45.80
53268;DHT22;39156;51.176;6.738;2023-04-25T13:50:16;12.10;46.00
53268;DHT22;39156;51.176;6.738;2023-04-25T13:52:42;12.20;45.60
53268;DHT22;39156;51.176;6.738;2023-04-25T13:55:08;12.20;45.80
53268;DHT22;39156;51.176;6.738;2023-04-25T13:57:35;12.20;45.50
53268;DHT22;39156;51.176;6.738;2023-04-25T14:00:02;12.30;45.70
53268;DHT22;39156;51.176;6.738;2023-04-25T14:02:32;12.40;46.20
53268;DHT22;39156;51.176;6.738;2023-04-25T14:04:58;12.40;45.80
53268;DHT22;39156;51.176;6.738;2023-04-25T14:07:24;12.50;45.80
53268;DHT22;39156;51.176;6.738;2023-04-25T14:09:50;12.60;46.20
53268;DHT22;39156;51.176;6.738;2023-04-25T14:12:16;12.70;46.40
53268;DHT22;39156;51.176;6.738;2023-04-25T14:14:41;12.70;46.80
53268;DHT22;39156;51.176;6.738;2023-04-25T14:17:08;12.80;46.50
53268;DHT22;39156;51.176;6.738;2023-04-25T14:19:34;12.90;46.70
53268;DHT22;39156;51.176;6.738;2023-04-25T14:22:00;12.90;46.80
53268;DHT22;39156;51.176;6.738;2023-04-25T14:24:25;12.90;46.40
53268;DHT22;39156;51.176;6.738;2023-04-25T14:26:51;12.90;46.60
53268;DHT22;39156;51.176;6.738;2023-04-25T14:29:17;12.80;46.40
53268;DHT22;39156;51.176;6.738;2023-04-25T14:31:43;12.90;46.80
53268;DHT22;39156;51.176;6.738;2023-04-25T14:34:10;12.90;47.80
53268;DHT22;39156;51.176;6.738;2023-04-25T14:36:36;13.00;47.30
53268;DHT22;39156;51.176;6.738;2023-04-25T14:39:02;13.00;47.00
53268;DHT22;39156;51.176;6.738;2023-04-25T14:41:30;13.10;46.80
53268;DHT22;39156;51.176;6.738;2023-04-25T14:43:56;13.20;46.90
53268;DHT22;39156;51.176;6.738;2023-04-25T14:46:22;13.20;46.60
53268;DHT22;39156;51.176;6.738;2023-04-25T14:48:48;13.10;46.90
53268;DHT22;39156;51.176;6.738;2023-04-25T14:51:14;13.10;47.30
53268;DHT22;39156;51.176;6.738;2023-04-25T14:53:41;13.00;46.80
53268;DHT22;39156;51.176;6.738;2023-04-25T14:56:06;13.10;47.10
53268;DHT22;39156;51.176;6.738;2023-04-25T14:58:33;13.00;46.80
53268;DHT22;39156;51.176;6.738;2023-04-25T15:00:59;13.00;46.90
53268;DHT22;39156;51.176;6.738;2023-04-25T15:03:25;13.00;46.20
53268;DHT22;39156;51.176;6.738;2023-04-25T15:05:51;12.80;46.40
53268;DHT22;39156;51.176;6.738;2023-04-25T15:08:18;12.80;47.00
53268;DHT22;39156;51.176;6.738;2023-04-25T15:10:44;12.70;47.40
53268;DHT22;39156;51.176;6.738;2023-04-25T15:13:10;12.80;46.90
53268;DHT22;39156;51.176;6.738;2023-04-25T15:15:36;12.70;46.40
53268;DHT22;39156;51.176;6.738;2023-04-25T15:18:02;12.70;46.60
53268;DHT22;39156;51.176;6.738;2023-04-25T15:20:28;12.70;46.50
53268;DHT22;39156;51.176;6.738;2023-04-25T15:22:53;12.70;46.10
53268;DHT22;39156;51.176;6.738;2023-04-25T15:25:19;12.70;46.10
53268;DHT22;39156;51.176;6.738;2023-04-25T15:27:46;12.80;46.70
53268;DHT22;39156;51.176;6.738;2023-04-25T15:30:15;12.80;47.30
53268;DHT22;39156;51.176;6.738;2023-04-25T15:32:42;12.90;46.90
53268;DHT22;39156;51.176;6.738;2023-04-25T15:35:09;12.90;46.40
53268;DHT22;39156;51.176;6.738;2023-04-25T15:37:36;13.00;45.60
53268;DHT22;39156;51.176;6.738;2023-04-25T15:40:05;13.00;45.10
53268;DHT22;39156;51.176;6.738;2023-04-25T15:42:38;13.00;45.00
53268;DHT22;39156;51.176;6.738;2023-04-25T15:45:06;13.00;44.50